sensor_id;sensor_type;location;lat;lon;timestamp;P1;durP1;ratioP1;P2;durP2;ratioP2
37777;SDS011;23615;51.506;7.678;2023-03-23T00:00:45;2.20;;;0.80;;
37777;SDS011;23615;51.506;7.678;2023-03-23T00:03:10;3.10;;;0.68;;
37777;SDS011;23615;51.506;7.678;2023-03-23T00:05:35;1.00;;;0.80;;
37777;SDS011;23615;51.506;7.678;2023-03-23T00:08:02;2.53;;;1.02;;
37777;SDS011;23615;51.506;7.678;2023-03-23T00:10:28;4.00;;;1.08;;
37777;SDS011;23615;51.506;7.678;2023-03-23T00:12:57;1.40;;;0.77;;
37777;SDS011;23615;51.506;7.678;2023-03-23T00:15:27;2.35;;;1.02;;
37777;SDS011;23615;51.506;7.678;2023-03-23T00:17:55;2.88;;;1.00;;
37777;SDS011;23615;51.506;7.678;2023-03-23T00:20:28;1.50;;;0.70;;
37777;SDS011;23615;51.506;7.678;2023-03-23T00:23:05;1.77;;;0.80;;
37777;SDS011;23615;51.506;7.678;2023-03-23T00:25:32;1.88;;;0.80;;
37777;SDS011;23615;51.506;7.678;2023-03-23T00:27:57;1.85;;;0.85;;
37777;SDS011;23615;51.506;7.678;2023-03-23T00:30:23;1.10;;;0.73;;
37777;SDS011;23615;51.506;7.678;2023-03-23T00:32:48;1.40;;;0.60;;
37777;SDS011;23615;51.506;7.678;2023-03-23T00:35:15;1.40;;;0.70;;
37777;SDS011;23615;51.506;7.678;2023-03-23T00:37:42;1.77;;;0.57;;
37777;SDS011;23615;51.506;7.678;2023-03-23T00:40:08;1.88;;;0.65;;
37777;SDS011;23615;51.506;7.678;2023-03-23T00:42:35;1.58;;;0.80;;
37777;SDS011;23615;51.506;7.678;2023-03-23T00:45:03;3.00;;;1.08;;
37777;SDS011;23615;51.506;7.678;2023-03-23T00:47:35;2.10;;;0.80;;
37777;SDS011;23615;51.506;7.678;2023-03-23T00:50:03;1.57;;;0.93;;
37777;SDS011;23615;51.506;7.678;2023-03-23T00:52:30;1.85;;;0.75;;
37777;SDS011;23615;51.506;7.678;2023-03-23T00:54:56;1.45;;;0.90;;
37777;SDS011;23615;51.506;7.678;2023-03-23T00:57:21;3.10;;;0.70;;
37777;SDS011;23615;51.506;7.678;2023-03-23T00:59:49;2.33;;;0.60;;
37777;SDS011;23615;51.506;7.678;2023-03-23T01:02:14;1.58;;;0.70;;
37777;SDS011;23615;51.506;7.678;2023-03-23T01:04:41;1.20;;;0.70;;
37777;SDS011;23615;51.506;7.678;2023-03-23T01:07:09;2.33;;;0.70;;
37777;SDS011;23615;51.506;7.678;2023-03-23T01:09:37;1.17;;;0.90;;
37777;SDS011;23615;51.506;7.678;2023-03-23T01:12:05;2.42;;;1.00;;
37777;SDS011;23615;51.506;7.678;2023-03-23T01:14:31;1.40;;;0.60;;
37777;SDS011;23615;51.506;7.678;2023-03-23T01:16:56;2.60;;;0.83;;
37777;SDS011;23615;51.506;7.678;2023-03-23T01:19:21;2.33;;;0.73;;
37777;SDS011;23615;51.506;7.678;2023-03-23T01:21:47;2.80;;;0.67;;
37777;SDS011;23615;51.506;7.678;2023-03-23T01:24:12;1.70;;;0.77;;
37777;SDS011;23615;51.506;7.678;2023-03-23T01:26:38;1.00;;;0.60;;
37777;SDS011;23615;51.506;7.678;2023-03-23T01:29:03;2.30;;;0.77;;
37777;SDS011;23615;51.506;7.678;2023-03-23T01:31:29;1.30;;;0.60;;
37777;SDS011;23615;51.506;7.678;2023-03-23T01:33:54;1.40;;;0.60;;
37777;SDS011;23615;51.506;7.678;2023-03-23T01:36:21;1.70;;;0.80;;
37777;SDS011;23615;51.506;7.678;2023-03-23T01:38:49;0.90;;;0.57;;
37777;SDS011;23615;51.506;7.678;2023-03-23T01:41:15;1.40;;;0.50;;
37777;SDS011;23615;51.506;7.678;2023-03-23T01:43:58;2.58;;;0.50;;
37777;SDS011;23615;51.506;7.678;2023-03-23T01:46:28;1.33;;;0.57;;
37777;SDS011;23615;51.506;7.678;2023-03-23T01:48:55;1.30;;;0.60;;
37777;SDS011;23615;51.506;7.678;2023-03-23T01:51:23;1.38;;;0.60;;
37777;SDS011;23615;51.506;7.678;2023-03-23T01:53:54;2.90;;;0.80;;
37777;SDS011;23615;51.506;7.678;2023-03-23T01:56:23;1.57;;;0.83;;
37777;SDS011;23615;51.506;7.678;2023-03-23T01:58:50;1.10;;;0.55;;
37777;SDS011;23615;51.506;7.678;2023-03-23T02:01:18;1.40;;;0.60;;
37777;SDS011;23615;51.506;7.678;2023-03-23T02:03:46;1.35;;;1.00;;
37777;SDS011;23615;51.506;7.678;2023-03-23T02:06:13;1.35;;;0.70;;
37777;SDS011;23615;51.506;7.678;2023-03-23T02:08:39;1.70;;;0.70;;
37777;SDS011;23615;51.506;7.678;2023-03-23T02:11:19;1.83;;;0.55;;
37777;SDS011;23615;51.506;7.678;2023-03-23T02:13:46;1.42;;;0.60;;
37777;SDS011;23615;51.506;7.678;2023-03-23T02:18:57;0.63;;;0.60;;
37777;SDS011;23615;51.506;7.678;2023-03-23T02:27:11;0.85;;;0.60;;
37777;SDS011;23615;51.506;7.678;2023-03-23T02:32:34;1.30;;;0.70;;
37777;SDS011;23615;51.506;7.678;2023-03-23T02:35:32;0.65;;;0.50;;
37777;SDS011;23615;51.506;7.678;2023-03-23T02:38:04;0.80;;;0.40;;
37777;SDS011;23615;51.506;7.678;2023-03-23T02:40:41;0.88;;;0.60;;
37777;SDS011;23615;51.506;7.678;2023-03-23T02:43:11;1.27;;;0.60;;
37777;SDS011;23615;51.506;7.678;2023-03-23T02:45:40;1.20;;;0.52;;
37777;SDS011;23615;51.506;7.678;2023-03-23T02:48:08;0.60;;;0.60;;
37777;SDS011;23615;51.506;7.678;2023-03-23T02:50:36;0.50;;;0.40;;
37777;SDS011;23615;51.506;7.678;2023-03-23T02:53:04;0.95;;;0.50;;
37777;SDS011;23615;51.506;7.678;2023-03-23T02:55:34;1.13;;;0.47;;
37777;SDS011;23615;51.506;7.678;2023-03-23T02:58:07;2.08;;;0.50;;
37777;SDS011;23615;51.506;7.678;2023-03-23T03:00:36;2.00;;;0.70;;
37777;SDS011;23615;51.506;7.678;2023-03-23T03:03:03;2.30;;;0.63;;
37777;SDS011;23615;51.506;7.678;2023-03-23T03:08:52;0.40;;;0.40;;
37777;SDS011;23615;51.506;7.678;2023-03-23T03:11:15;2.50;;;0.40;;
37777;SDS011;23615;51.506;7.678;2023-03-23T03:13:47;1.30;;;0.70;;
37777;SDS011;23615;51.506;7.678;2023-03-23T03:17:02;1.67;;;0.40;;
37777;SDS011;23615;51.506;7.678;2023-03-23T03:19:24;1.10;;;0.60;;
37777;SDS011;23615;51.506;7.678;2023-03-23T03:21:50;1.50;;;0.60;;
37777;SDS011;23615;51.506;7.678;2023-03-23T03:24:19;0.80;;;0.63;;
37777;SDS011;23615;51.506;7.678;2023-03-23T03:26:46;1.10;;;0.50;;
37777;SDS011;23615;51.506;7.678;2023-03-23T03:29:17;0.90;;;0.50;;
37777;SDS011;23615;51.506;7.678;2023-03-23T03:31:45;1.30;;;0.82;;
37777;SDS011;23615;51.506;7.678;2023-03-23T03:34:14;0.40;;;0.40;;
37777;SDS011;23615;51.506;7.678;2023-03-23T03:36:43;2.00;;;0.60;;
37777;SDS011;23615;51.506;7.678;2023-03-23T03:39:10;1.70;;;0.70;;
37777;SDS011;23615;51.506;7.678;2023-03-23T03:41:37;1.55;;;0.60;;
37777;SDS011;23615;51.506;7.678;2023-03-23T03:44:03;1.40;;;0.60;;
37777;SDS011;23615;51.506;7.678;2023-03-23T03:46:30;1.13;;;0.60;;
37777;SDS011;23615;51.506;7.678;2023-03-23T03:48:56;1.35;;;0.47;;
37777;SDS011;23615;51.506;7.678;2023-03-23T03:51:23;0.50;;;0.50;;
37777;SDS011;23615;51.506;7.678;2023-03-23T03:53:49;2.17;;;0.55;;
37777;SDS011;23615;51.506;7.678;2023-03-23T03:56:15;1.25;;;0.60;;
37777;SDS011;23615;51.506;7.678;2023-03-23T03:58:40;1.40;;;0.50;;
37777;SDS011;23615;51.506;7.678;2023-03-23T04:01:07;0.68;;;0.45;;
37777;SDS011;23615;51.506;7.678;2023-03-23T04:03:35;0.60;;;0.50;;
37777;SDS011;23615;51.506;7.678;2023-03-23T04:06:01;1.45;;;0.40;;
37777;SDS011;23615;51.506;7.678;2023-03-23T04:08:27;0.90;;;0.40;;
37777;SDS011;23615;51.506;7.678;2023-03-23T04:10:53;0.70;;;0.40;;
37777;SDS011;23615;51.506;7.678;2023-03-23T04:13:19;2.10;;;0.50;;
37777;SDS011;23615;51.506;7.678;2023-03-23T04:15:45;1.70;;;0.70;;
37777;SDS011;23615;51.506;7.678;2023-03-23T04:18:11;1.10;;;0.40;;
37777;SDS011;23615;51.506;7.678;2023-03-23T04:20:37;1.47;;;0.50;;
37777;SDS011;23615;51.506;7.678;2023-03-23T04:23:03;2.83;;;0.80;;
37777;SDS011;23615;51.506;7.678;2023-03-23T04:25:28;0.50;;;0.30;;
37777;SDS011;23615;51.506;7.678;2023-03-23T04:27:57;0.40;;;0.40;;
37777;SDS011;23615;51.506;7.678;2023-03-23T04:30:25;1.13;;;0.52;;
37777;SDS011;23615;51.506;7.678;2023-03-23T04:32:52;0.60;;;0.60;;
37777;SDS011;23615;51.506;7.678;2023-03-23T04:35:20;1.70;;;0.55;;
37777;SDS011;23615;51.506;7.678;2023-03-23T04:37:47;0.70;;;0.30;;
37777;SDS011;23615;51.506;7.678;2023-03-23T04:40:13;0.63;;;0.50;;
37777;SDS011;23615;51.506;7.678;2023-03-23T04:42:40;1.58;;;0.40;;
37777;SDS011;23615;51.506;7.678;2023-03-23T04:45:10;0.73;;;0.38;;
37777;SDS011;23615;51.506;7.678;2023-03-23T04:47:39;0.70;;;0.47;;
37777;SDS011;23615;51.506;7.678;2023-03-23T04:50:09;0.55;;;0.30;;
37777;SDS011;23615;51.506;7.678;2023-03-23T04:52:37;1.20;;;0.40;;
37777;SDS011;23615;51.506;7.678;2023-03-23T04:55:05;1.97;;;0.40;;
37777;SDS011;23615;51.506;7.678;2023-03-23T04:57:32;0.73;;;0.32;;
37777;SDS011;23615;51.506;7.678;2023-03-23T04:59:57;1.53;;;0.40;;
37777;SDS011;23615;51.506;7.678;2023-03-23T05:02:23;0.70;;;0.40;;
37777;SDS011;23615;51.506;7.678;2023-03-23T05:04:50;0.73;;;0.30;;
37777;SDS011;23615;51.506;7.678;2023-03-23T05:07:15;1.95;;;0.68;;
37777;SDS011;23615;51.506;7.678;2023-03-23T05:09:41;0.47;;;0.30;;
37777;SDS011;23615;51.506;7.678;2023-03-23T05:12:07;0.50;;;0.30;;
37777;SDS011;23615;51.506;7.678;2023-03-23T05:14:34;0.60;;;0.50;;
37777;SDS011;23615;51.506;7.678;2023-03-23T05:17:00;0.60;;;0.30;;
37777;SDS011;23615;51.506;7.678;2023-03-23T05:19:26;0.90;;;0.50;;
37777;SDS011;23615;51.506;7.678;2023-03-23T05:21:52;0.87;;;0.40;;
37777;SDS011;23615;51.506;7.678;2023-03-23T05:24:18;1.00;;;0.40;;
37777;SDS011;23615;51.506;7.678;2023-03-23T05:26:44;1.07;;;0.30;;
37777;SDS011;23615;51.506;7.678;2023-03-23T05:29:13;0.40;;;0.30;;
37777;SDS011;23615;51.506;7.678;2023-03-23T05:31:38;0.30;;;0.30;;
37777;SDS011;23615;51.506;7.678;2023-03-23T05:34:04;1.58;;;0.40;;
37777;SDS011;23615;51.506;7.678;2023-03-23T05:36:30;0.87;;;0.40;;
37777;SDS011;23615;51.506;7.678;2023-03-23T05:38:55;1.00;;;0.47;;
37777;SDS011;23615;51.506;7.678;2023-03-23T05:41:21;0.30;;;0.30;;
37777;SDS011;23615;51.506;7.678;2023-03-23T05:43:48;1.17;;;0.40;;
37777;SDS011;23615;51.506;7.678;2023-03-23T05:46:13;1.30;;;0.50;;
37777;SDS011;23615;51.506;7.678;2023-03-23T05:48:39;2.28;;;0.40;;
37777;SDS011;23615;51.506;7.678;2023-03-23T05:51:05;0.93;;;0.50;;
37777;SDS011;23615;51.506;7.678;2023-03-23T05:53:30;0.60;;;0.40;;
37777;SDS011;23615;51.506;7.678;2023-03-23T05:56:01;0.40;;;0.40;;
37777;SDS011;23615;51.506;7.678;2023-03-23T05:58:28;1.05;;;0.50;;
37777;SDS011;23615;51.506;7.678;2023-03-23T06:00:54;0.50;;;0.50;;
37777;SDS011;23615;51.506;7.678;2023-03-23T06:03:20;0.50;;;0.40;;
37777;SDS011;23615;51.506;7.678;2023-03-23T06:05:45;0.70;;;0.40;;
37777;SDS011;23615;51.506;7.678;2023-03-23T06:08:11;1.00;;;0.70;;
37777;SDS011;23615;51.506;7.678;2023-03-23T06:10:37;0.50;;;0.47;;
37777;SDS011;23615;51.506;7.678;2023-03-23T06:13:03;0.80;;;0.63;;
37777;SDS011;23615;51.506;7.678;2023-03-23T06:15:29;1.10;;;0.40;;
37777;SDS011;23615;51.506;7.678;2023-03-23T06:17:59;0.80;;;0.52;;
37777;SDS011;23615;51.506;7.678;2023-03-23T06:20:25;0.70;;;0.50;;
37777;SDS011;23615;51.506;7.678;2023-03-23T06:22:51;1.10;;;0.50;;
37777;SDS011;23615;51.506;7.678;2023-03-23T06:25:17;1.33;;;0.60;;
37777;SDS011;23615;51.506;7.678;2023-03-23T06:27:42;1.17;;;0.60;;
37777;SDS011;23615;51.506;7.678;2023-03-23T06:30:08;2.10;;;0.60;;
37777;SDS011;23615;51.506;7.678;2023-03-23T06:32:35;1.38;;;0.85;;
37777;SDS011;23615;51.506;7.678;2023-03-23T06:35:02;0.90;;;0.50;;
37777;SDS011;23615;51.506;7.678;2023-03-23T06:37:28;2.05;;;0.73;;
37777;SDS011;23615;51.506;7.678;2023-03-23T06:39:53;1.83;;;0.60;;
37777;SDS011;23615;51.506;7.678;2023-03-23T06:42:19;1.60;;;0.60;;
37777;SDS011;23615;51.506;7.678;2023-03-23T06:44:44;1.90;;;0.70;;
37777;SDS011;23615;51.506;7.678;2023-03-23T06:47:10;0.57;;;0.50;;
37777;SDS011;23615;51.506;7.678;2023-03-23T06:49:35;1.50;;;0.90;;
37777;SDS011;23615;51.506;7.678;2023-03-23T06:52:01;0.90;;;0.47;;
37777;SDS011;23615;51.506;7.678;2023-03-23T06:54:28;2.60;;;0.60;;
37777;SDS011;23615;51.506;7.678;2023-03-23T06:56:54;0.90;;;0.50;;
37777;SDS011;23615;51.506;7.678;2023-03-23T06:59:19;1.33;;;0.43;;
37777;SDS011;23615;51.506;7.678;2023-03-23T07:01:44;1.17;;;0.60;;
37777;SDS011;23615;51.506;7.678;2023-03-23T07:04:11;0.77;;;0.50;;
37777;SDS011;23615;51.506;7.678;2023-03-23T07:06:36;2.60;;;0.50;;
37777;SDS011;23615;51.506;7.678;2023-03-23T07:09:03;1.35;;;0.50;;
37777;SDS011;23615;51.506;7.678;2023-03-23T07:11:29;1.30;;;0.60;;
37777;SDS011;23615;51.506;7.678;2023-03-23T07:13:55;1.45;;;0.63;;
37777;SDS011;23615;51.506;7.678;2023-03-23T07:16:21;1.63;;;0.50;;
37777;SDS011;23615;51.506;7.678;2023-03-23T07:18:46;2.63;;;0.80;;
37777;SDS011;23615;51.506;7.678;2023-03-23T07:21:12;2.10;;;0.40;;
37777;SDS011;23615;51.506;7.678;2023-03-23T07:23:37;3.60;;;0.70;;
37777;SDS011;23615;51.506;7.678;2023-03-23T07:26:02;1.17;;;0.43;;
37777;SDS011;23615;51.506;7.678;2023-03-23T07:28:28;1.50;;;0.60;;
37777;SDS011;23615;51.506;7.678;2023-03-23T07:30:53;0.90;;;0.40;;
37777;SDS011;23615;51.506;7.678;2023-03-23T07:33:19;1.90;;;0.60;;
37777;SDS011;23615;51.506;7.678;2023-03-23T07:35:44;1.60;;;0.50;;
37777;SDS011;23615;51.506;7.678;2023-03-23T07:38:10;1.45;;;0.60;;
37777;SDS011;23615;51.506;7.678;2023-03-23T07:40:36;2.53;;;0.50;;
37777;SDS011;23615;51.506;7.678;2023-03-23T07:43:02;1.57;;;0.70;;
37777;SDS011;23615;51.506;7.678;2023-03-23T07:45:28;2.67;;;0.57;;
37777;SDS011;23615;51.506;7.678;2023-03-23T07:47:54;3.22;;;0.73;;
37777;SDS011;23615;51.506;7.678;2023-03-23T07:50:20;2.38;;;0.70;;
37777;SDS011;23615;51.506;7.678;2023-03-23T07:52:49;2.70;;;0.55;;
37777;SDS011;23615;51.506;7.678;2023-03-23T07:55:14;2.60;;;0.50;;
37777;SDS011;23615;51.506;7.678;2023-03-23T07:57:43;1.90;;;0.77;;
37777;SDS011;23615;51.506;7.678;2023-03-23T08:00:09;1.30;;;0.50;;
37777;SDS011;23615;51.506;7.678;2023-03-23T08:02:40;2.30;;;0.50;;
37777;SDS011;23615;51.506;7.678;2023-03-23T08:05:06;2.40;;;0.65;;
37777;SDS011;23615;51.506;7.678;2023-03-23T08:07:33;2.15;;;0.57;;
37777;SDS011;23615;51.506;7.678;2023-03-23T08:09:59;2.90;;;0.57;;
37777;SDS011;23615;51.506;7.678;2023-03-23T08:12:24;2.87;;;0.57;;
37777;SDS011;23615;51.506;7.678;2023-03-23T08:14:50;2.50;;;0.40;;
37777;SDS011;23615;51.506;7.678;2023-03-23T08:17:16;1.80;;;0.40;;
37777;SDS011;23615;51.506;7.678;2023-03-23T08:19:41;2.42;;;0.45;;
37777;SDS011;23615;51.506;7.678;2023-03-23T08:22:08;2.10;;;0.60;;
37777;SDS011;23615;51.506;7.678;2023-03-23T08:24:33;1.43;;;0.40;;
37777;SDS011;23615;51.506;7.678;2023-03-23T08:26:59;2.30;;;0.70;;
37777;SDS011;23615;51.506;7.678;2023-03-23T08:29:25;1.20;;;0.40;;
37777;SDS011;23615;51.506;7.678;2023-03-23T08:31:51;2.20;;;0.40;;
37777;SDS011;23615;51.506;7.678;2023-03-23T08:34:16;1.75;;;0.40;;
37777;SDS011;23615;51.506;7.678;2023-03-23T08:36:42;1.00;;;0.40;;
37777;SDS011;23615;51.506;7.678;2023-03-23T08:39:09;1.35;;;0.43;;
37777;SDS011;23615;51.506;7.678;2023-03-23T08:41:35;0.80;;;0.30;;
37777;SDS011;23615;51.506;7.678;2023-03-23T08:44:00;1.40;;;0.40;;
37777;SDS011;23615;51.506;7.678;2023-03-23T08:46:25;1.53;;;0.40;;
37777;SDS011;23615;51.506;7.678;2023-03-23T08:48:50;1.63;;;0.50;;
37777;SDS011;23615;51.506;7.678;2023-03-23T08:51:16;1.70;;;0.47;;
37777;SDS011;23615;51.506;7.678;2023-03-23T08:53:41;1.88;;;0.43;;
37777;SDS011;23615;51.506;7.678;2023-03-23T08:56:09;2.00;;;0.50;;
37777;SDS011;23615;51.506;7.678;2023-03-23T08:58:37;1.27;;;0.40;;
37777;SDS011;23615;51.506;7.678;2023-03-23T09:01:04;1.42;;;0.35;;
37777;SDS011;23615;51.506;7.678;2023-03-23T09:03:31;0.83;;;0.40;;
37777;SDS011;23615;51.506;7.678;2023-03-23T09:05:58;1.48;;;0.60;;
37777;SDS011;23615;51.506;7.678;2023-03-23T09:08:25;2.22;;;0.50;;
37777;SDS011;23615;51.506;7.678;2023-03-23T09:10:53;1.77;;;0.50;;
37777;SDS011;23615;51.506;7.678;2023-03-23T09:13:18;0.47;;;0.30;;
37777;SDS011;23615;51.506;7.678;2023-03-23T09:15:44;1.20;;;0.40;;
37777;SDS011;23615;51.506;7.678;2023-03-23T09:18:09;2.13;;;0.40;;
37777;SDS011;23615;51.506;7.678;2023-03-23T09:20:35;0.80;;;0.37;;
37777;SDS011;23615;51.506;7.678;2023-03-23T09:23:02;1.40;;;0.40;;
37777;SDS011;23615;51.506;7.678;2023-03-23T09:25:27;2.70;;;0.50;;
37777;SDS011;23615;51.506;7.678;2023-03-23T09:27:56;2.13;;;0.50;;
37777;SDS011;23615;51.506;7.678;2023-03-23T09:30:24;3.55;;;0.85;;
37777;SDS011;23615;51.506;7.678;2023-03-23T09:32:54;1.70;;;0.50;;
37777;SDS011;23615;51.506;7.678;2023-03-23T09:35:19;1.65;;;0.55;;
37777;SDS011;23615;51.506;7.678;2023-03-23T09:37:49;3.75;;;0.75;;
37777;SDS011;23615;51.506;7.678;2023-03-23T09:40:17;2.22;;;0.65;;
37777;SDS011;23615;51.506;7.678;2023-03-23T09:42:54;3.67;;;0.70;;
37777;SDS011;23615;51.506;7.678;2023-03-23T09:45:43;1.90;;;0.60;;
37777;SDS011;23615;51.506;7.678;2023-03-23T09:48:38;3.70;;;0.82;;
37777;SDS011;23615;51.506;7.678;2023-03-23T09:53:49;1.33;;;0.45;;
37777;SDS011;23615;51.506;7.678;2023-03-23T09:56:18;3.33;;;0.73;;
37777;SDS011;23615;51.506;7.678;2023-03-23T09:58:53;1.75;;;0.50;;
37777;SDS011;23615;51.506;7.678;2023-03-23T10:01:26;2.55;;;0.75;;
37777;SDS011;23615;51.506;7.678;2023-03-23T10:07:18;1.77;;;0.60;;
37777;SDS011;23615;51.506;7.678;2023-03-23T10:09:46;3.13;;;0.50;;
37777;SDS011;23615;51.506;7.678;2023-03-23T10:12:32;2.35;;;0.43;;
37777;SDS011;23615;51.506;7.678;2023-03-23T10:15:11;0.95;;;0.50;;
37777;SDS011;23615;51.506;7.678;2023-03-23T10:17:45;3.73;;;0.70;;
37777;SDS011;23615;51.506;7.678;2023-03-23T10:22:57;3.05;;;0.70;;
37777;SDS011;23615;51.506;7.678;2023-03-23T10:25:32;3.95;;;1.30;;
37777;SDS011;23615;51.506;7.678;2023-03-23T10:28:11;2.17;;;0.70;;
37777;SDS011;23615;51.506;7.678;2023-03-23T10:30:48;3.20;;;0.50;;
37777;SDS011;23615;51.506;7.678;2023-03-23T10:33:20;1.45;;;0.55;;
37777;SDS011;23615;51.506;7.678;2023-03-23T10:35:56;1.47;;;0.60;;
37777;SDS011;23615;51.506;7.678;2023-03-23T10:38:29;3.78;;;0.60;;
37777;SDS011;23615;51.506;7.678;2023-03-23T10:41:01;4.70;;;0.80;;
37777;SDS011;23615;51.506;7.678;2023-03-23T10:43:30;2.30;;;0.77;;
37777;SDS011;23615;51.506;7.678;2023-03-23T10:46:02;1.70;;;0.57;;
37777;SDS011;23615;51.506;7.678;2023-03-23T10:48:35;4.60;;;0.70;;
37777;SDS011;23615;51.506;7.678;2023-03-23T10:51:04;4.97;;;0.90;;
37777;SDS011;23615;51.506;7.678;2023-03-23T10:53:35;2.83;;;1.00;;
37777;SDS011;23615;51.506;7.678;2023-03-23T10:56:02;2.60;;;0.60;;
37777;SDS011;23615;51.506;7.678;2023-03-23T10:58:30;2.58;;;0.40;;
37777;SDS011;23615;51.506;7.678;2023-03-23T11:00:58;1.50;;;0.43;;
37777;SDS011;23615;51.506;7.678;2023-03-23T11:03:39;1.00;;;0.40;;
37777;SDS011;23615;51.506;7.678;2023-03-23T11:06:08;2.23;;;0.47;;
37777;SDS011;23615;51.506;7.678;2023-03-23T11:08:37;2.85;;;0.50;;
37777;SDS011;23615;51.506;7.678;2023-03-23T11:11:36;2.13;;;0.60;;
37777;SDS011;23615;51.506;7.678;2023-03-23T11:16:54;2.70;;;0.50;;
37777;SDS011;23615;51.506;7.678;2023-03-23T11:19:25;1.58;;;0.50;;
37777;SDS011;23615;51.506;7.678;2023-03-23T11:21:52;2.28;;;0.40;;
37777;SDS011;23615;51.506;7.678;2023-03-23T11:24:25;2.80;;;0.30;;
37777;SDS011;23615;51.506;7.678;2023-03-23T11:26:51;3.22;;;0.60;;
37777;SDS011;23615;51.506;7.678;2023-03-23T11:29:25;2.20;;;0.57;;
37777;SDS011;23615;51.506;7.678;2023-03-23T11:32:02;1.58;;;0.68;;
37777;SDS011;23615;51.506;7.678;2023-03-23T11:34:45;1.95;;;0.30;;
37777;SDS011;23615;51.506;7.678;2023-03-23T11:37:14;1.95;;;0.50;;
37777;SDS011;23615;51.506;7.678;2023-03-23T11:39:47;1.65;;;0.40;;
37777;SDS011;23615;51.506;7.678;2023-03-23T11:42:19;1.50;;;0.50;;
37777;SDS011;23615;51.506;7.678;2023-03-23T11:44:53;2.15;;;0.50;;
37777;SDS011;23615;51.506;7.678;2023-03-23T11:52:55;2.20;;;1.10;;
37777;SDS011;23615;51.506;7.678;2023-03-23T11:58:11;2.88;;;1.90;;
37777;SDS011;23615;51.506;7.678;2023-03-23T12:01:05;3.42;;;2.00;;
37777;SDS011;23615;51.506;7.678;2023-03-23T12:06:09;2.40;;;2.10;;
37777;SDS011;23615;51.506;7.678;2023-03-23T12:08:45;3.10;;;2.13;;
37777;SDS011;23615;51.506;7.678;2023-03-23T12:11:37;3.60;;;2.75;;
37777;SDS011;23615;51.506;7.678;2023-03-23T12:14:16;2.55;;;1.90;;
37777;SDS011;23615;51.506;7.678;2023-03-23T12:22:24;3.70;;;2.83;;
37777;SDS011;23615;51.506;7.678;2023-03-23T12:24:59;2.97;;;2.78;;
37777;SDS011;23615;51.506;7.678;2023-03-23T12:27:42;2.80;;;2.60;;
37777;SDS011;23615;51.506;7.678;2023-03-23T12:38:08;3.20;;;3.00;;
37777;SDS011;23615;51.506;7.678;2023-03-23T12:43:19;3.30;;;3.10;;
37777;SDS011;23615;51.506;7.678;2023-03-23T12:49:07;2.90;;;2.70;;
37777;SDS011;23615;51.506;7.678;2023-03-23T12:51:45;2.40;;;2.20;;
37777;SDS011;23615;51.506;7.678;2023-03-23T12:57:01;2.13;;;1.52;;
37777;SDS011;23615;51.506;7.678;2023-03-23T12:59:45;1.00;;;0.90;;
37777;SDS011;23615;51.506;7.678;2023-03-23T13:02:20;0.80;;;0.80;;
37777;SDS011;23615;51.506;7.678;2023-03-23T13:04:51;1.00;;;0.82;;
37777;SDS011;23615;51.506;7.678;2023-03-23T13:07:31;2.13;;;0.73;;
37777;SDS011;23615;51.506;7.678;2023-03-23T13:12:46;1.70;;;1.07;;
37777;SDS011;23615;51.506;7.678;2023-03-23T13:16:14;1.00;;;0.90;;
37777;SDS011;23615;51.506;7.678;2023-03-23T13:18:27;1.38;;;0.80;;
37777;SDS011;23615;51.506;7.678;2023-03-23T13:23:44;1.63;;;0.85;;
37777;SDS011;23615;51.506;7.678;2023-03-23T13:26:14;1.53;;;1.23;;
37777;SDS011;23615;51.506;7.678;2023-03-23T13:31:40;1.33;;;1.23;;
37777;SDS011;23615;51.506;7.678;2023-03-23T13:36:57;1.60;;;1.10;;
37777;SDS011;23615;51.506;7.678;2023-03-23T13:42:17;1.77;;;1.58;;
37777;SDS011;23615;51.506;7.678;2023-03-23T13:52:39;0.77;;;0.52;;
37777;SDS011;23615;51.506;7.678;2023-03-23T14:03:10;0.68;;;0.65;;
37777;SDS011;23615;51.506;7.678;2023-03-23T14:05:43;1.33;;;0.77;;
37777;SDS011;23615;51.506;7.678;2023-03-23T14:10:55;1.60;;;1.25;;
37777;SDS011;23615;51.506;7.678;2023-03-23T14:16:31;1.77;;;1.58;;
37777;SDS011;23615;51.506;7.678;2023-03-23T14:19:01;2.80;;;1.50;;
37777;SDS011;23615;51.506;7.678;2023-03-23T14:21:36;2.30;;;1.70;;
37777;SDS011;23615;51.506;7.678;2023-03-23T14:24:08;3.03;;;2.10;;
37777;SDS011;23615;51.506;7.678;2023-03-23T14:26:36;2.40;;;2.20;;
37777;SDS011;23615;51.506;7.678;2023-03-23T14:29:02;3.10;;;2.80;;
37777;SDS011;23615;51.506;7.678;2023-03-23T14:31:29;4.05;;;3.25;;
37777;SDS011;23615;51.506;7.678;2023-03-23T14:33:55;4.17;;;3.77;;
37777;SDS011;23615;51.506;7.678;2023-03-23T14:36:28;4.25;;;3.88;;
37777;SDS011;23615;51.506;7.678;2023-03-23T14:39:03;4.68;;;4.28;;
37777;SDS011;23615;51.506;7.678;2023-03-23T14:41:32;5.20;;;4.43;;
37777;SDS011;23615;51.506;7.678;2023-03-23T14:44:00;5.32;;;4.82;;
37777;SDS011;23615;51.506;7.678;2023-03-23T14:46:27;6.10;;;5.03;;
37777;SDS011;23615;51.506;7.678;2023-03-23T14:48:54;5.50;;;5.00;;
37777;SDS011;23615;51.506;7.678;2023-03-23T14:51:20;5.33;;;4.87;;
37777;SDS011;23615;51.506;7.678;2023-03-23T14:53:45;6.00;;;5.38;;
37777;SDS011;23615;51.506;7.678;2023-03-23T14:56:16;6.50;;;5.30;;
37777;SDS011;23615;51.506;7.678;2023-03-23T14:58:45;7.73;;;5.67;;
37777;SDS011;23615;51.506;7.678;2023-03-23T15:01:13;5.97;;;5.30;;
37777;SDS011;23615;51.506;7.678;2023-03-23T15:06:47;7.78;;;6.45;;
37777;SDS011;23615;51.506;7.678;2023-03-23T15:09:17;5.72;;;5.20;;
37777;SDS011;23615;51.506;7.678;2023-03-23T15:11:50;5.47;;;4.97;;
37777;SDS011;23615;51.506;7.678;2023-03-23T15:14:20;5.30;;;4.70;;
37777;SDS011;23615;51.506;7.678;2023-03-23T15:16:51;5.22;;;4.15;;
37777;SDS011;23615;51.506;7.678;2023-03-23T15:19:21;4.50;;;4.03;;
37777;SDS011;23615;51.506;7.678;2023-03-23T15:21:56;6.10;;;4.20;;
37777;SDS011;23615;51.506;7.678;2023-03-23T15:24:33;4.97;;;3.50;;
37777;SDS011;23615;51.506;7.678;2023-03-23T15:29:53;5.30;;;2.30;;
37777;SDS011;23615;51.506;7.678;2023-03-23T15:34:55;3.67;;;2.30;;
37777;SDS011;23615;51.506;7.678;2023-03-23T15:37:32;3.08;;;1.90;;
37777;SDS011;23615;51.506;7.678;2023-03-23T15:39:59;2.97;;;1.20;;
37777;SDS011;23615;51.506;7.678;2023-03-23T15:42:29;1.90;;;1.30;;
37777;SDS011;23615;51.506;7.678;2023-03-23T15:45:05;1.80;;;1.23;;
37777;SDS011;23615;51.506;7.678;2023-03-23T15:52:34;2.80;;;1.10;;
37777;SDS011;23615;51.506;7.678;2023-03-23T15:54:59;2.28;;;0.85;;
37777;SDS011;23615;51.506;7.678;2023-03-23T15:57:25;3.08;;;0.80;;
37777;SDS011;23615;51.506;7.678;2023-03-23T15:59:50;3.00;;;0.90;;
37777;SDS011;23615;51.506;7.678;2023-03-23T16:02:17;1.52;;;1.00;;
37777;SDS011;23615;51.506;7.678;2023-03-23T16:04:46;2.30;;;0.73;;
37777;SDS011;23615;51.506;7.678;2023-03-23T16:07:12;2.53;;;0.70;;
37777;SDS011;23615;51.506;7.678;2023-03-23T16:09:38;3.90;;;0.60;;
37777;SDS011;23615;51.506;7.678;2023-03-23T16:12:09;2.83;;;0.80;;
37777;SDS011;23615;51.506;7.678;2023-03-23T16:14:37;2.30;;;0.88;;
37777;SDS011;23615;51.506;7.678;2023-03-23T16:17:03;4.10;;;0.77;;
37777;SDS011;23615;51.506;7.678;2023-03-23T16:19:28;3.20;;;0.60;;
37777;SDS011;23615;51.506;7.678;2023-03-23T16:21:53;1.00;;;0.47;;
37777;SDS011;23615;51.506;7.678;2023-03-23T16:24:18;2.20;;;0.70;;
37777;SDS011;23615;51.506;7.678;2023-03-23T16:26:44;2.10;;;1.10;;
37777;SDS011;23615;51.506;7.678;2023-03-23T16:29:11;1.85;;;0.80;;
37777;SDS011;23615;51.506;7.678;2023-03-23T16:31:38;4.05;;;1.10;;
37777;SDS011;23615;51.506;7.678;2023-03-23T16:34:03;2.30;;;0.83;;
37777;SDS011;23615;51.506;7.678;2023-03-23T16:36:28;2.83;;;1.00;;
37777;SDS011;23615;51.506;7.678;2023-03-23T16:38:54;2.23;;;1.27;;
37777;SDS011;23615;51.506;7.678;2023-03-23T16:41:19;2.20;;;1.10;;
37777;SDS011;23615;51.506;7.678;2023-03-23T16:43:44;3.53;;;1.00;;
37777;SDS011;23615;51.506;7.678;2023-03-23T16:46:10;2.47;;;1.08;;